Time;durP1;ratioP1;P1;durP2;ratioP2;P2;SDS_P1;SDS_P2;PMS_P1;PMS_P2;Temp;Humidity;BMP_temperature;BMP_pressure;BME280_temperature;BME280_humidity;BME280_pressure;Samples;Min_cycle;Max_cycle;Signal;HPM_P1;HPM_P2
2023/05/15 00:01:44;;;;;;;4.47;4.17;;;10.90;99.90;;;;;;5033915;28;20178;-78
2023/05/15 00:04:10;;;;;;;5.00;4.60;;;10.90;99.90;;;;;;5033451;28;20184;-78
2023/05/15 00:06:36;;;;;;;5.40;4.60;;;10.90;99.90;;;;;;5033369;28;20270;-78
2023/05/15 00:09:02;;;;;;;6.00;4.93;;;10.90;99.90;;;;;;5033899;28;20219;-78
2023/05/15 00:11:28;;;;;;;5.27;4.87;;;10.90;99.90;;;;;;5032638;28;20234;-78
2023/05/15 00:13:54;;;;;;;5.33;4.57;;;10.80;99.90;;;;;;5035551;28;20210;-80
2023/05/15 00:16:20;;;;;;;8.17;5.00;;;10.80;99.90;;;;;;5033836;28;20618;-79
2023/05/15 00:18:45;;;;;;;5.80;5.23;;;10.70;99.90;;;;;;5036989;28;20222;-80
2023/05/15 00:21:11;;;;;;;6.03;4.90;;;10.70;99.90;;;;;;5034299;28;20185;-78
2023/05/15 00:23:37;;;;;;;5.40;5.00;;;10.70;99.90;;;;;;5033680;28;20178;-79
2023/05/15 00:26:03;;;;;;;5.70;5.20;;;10.80;99.90;;;;;;5032916;28;20170;-80
2023/05/15 00:28:28;;;;;;;4.80;4.17;;;10.70;99.90;;;;;;5033493;28;20186;-79
2023/05/15 00:30:54;;;;;;;3.90;3.70;;;10.60;99.90;;;;;;5033911;28;20177;-79
2023/05/15 00:33:20;;;;;;;3.37;3.17;;;10.60;99.90;;;;;;5033925;28;20588;-80
2023/05/15 00:35:45;;;;;;;2.70;2.60;;;10.60;99.90;;;;;;5031793;28;20595;-78
2023/05/15 00:38:11;;;;;;;3.10;2.90;;;10.60;99.90;;;;;;5034055;28;20270;-80
2023/05/15 00:40:38;;;;;;;4.00;2.80;;;10.60;99.90;;;;;;5033515;28;20222;-79
2023/05/15 00:43:04;;;;;;;2.47;2.37;;;10.50;99.90;;;;;;5033390;28;20176;-80
2023/05/15 00:45:30;;;;;;;2.63;2.53;;;10.60;99.90;;;;;;5032754;28;20591;-79
2023/05/15 00:47:58;;;;;;;2.50;2.40;;;10.50;99.90;;;;;;5033420;28;20180;-78
2023/05/15 00:50:24;;;;;;;2.23;2.13;;;10.60;99.90;;;;;;5033497;28;20525;-79
2023/05/15 00:52:50;;;;;;;2.10;2.00;;;10.60;99.90;;;;;;5033412;28;20681;-79
2023/05/15 00:55:16;;;;;;;2.43;2.33;;;10.50;99.90;;;;;;5032985;28;20279;-79
2023/05/15 00:57:43;;;;;;;2.30;2.20;;;10.50;99.90;;;;;;5032724;28;20213;-78
2023/05/15 01:00:09;;;;;;;2.27;2.17;;;10.60;99.90;;;;;;5032071;28;20188;-79
2023/05/15 01:02:38;;;;;;;2.27;2.17;;;10.60;99.90;;;;;;5033490;28;20262;-78
2023/05/15 01:05:06;;;;;;;2.03;1.93;;;10.70;99.90;;;;;;5032669;28;20636;-79
2023/05/15 01:07:36;;;;;;;2.37;2.27;;;10.70;99.90;;;;;;5032393;28;20735;-79
2023/05/15 01:10:03;;;;;;;2.30;2.20;;;10.70;99.90;;;;;;5032993;28;20178;-79
2023/05/15 01:12:31;;;;;;;2.17;2.07;;;10.70;99.90;;;;;;5032907;28;20173;-78
2023/05/15 01:14:57;;;;;;;2.30;2.20;;;10.80;99.90;;;;;;5032667;28;20263;-78
2023/05/15 01:17:23;;;;;;;2.13;2.03;;;10.80;99.90;;;;;;5032192;28;20204;-79
2023/05/15 01:19:51;;;;;;;2.47;2.37;;;10.80;99.90;;;;;;5032689;28;20184;-80
2023/05/15 01:22:45;;;;;;;2.00;1.90;;;10.70;99.90;;;;;;5032385;28;20172;-78
2023/05/15 01:25:36;;;;;;;2.20;2.10;;;10.70;99.90;;;;;;5031997;28;20580;-79
2023/05/15 01:28:09;;;;;;;2.23;2.07;;;10.70;99.90;;;;;;5032283;28;20161;-80
2023/05/15 01:30:39;;;;;;;1.77;1.70;;;10.70;99.90;;;;;;5032727;28;20169;-79
2023/05/15 01:33:22;;;;;;;2.07;1.90;;;10.80;99.90;;;;;;5032883;28;20499;-79
2023/05/15 01:36:20;;;;;;;2.20;2.00;;;10.80;99.90;;;;;;5032463;28;20232;-78
2023/05/15 01:38:54;;;;;;;2.23;2.03;;;10.90;99.90;;;;;;5032331;28;20201;-80
2023/05/15 01:41:28;;;;;;;1.47;1.40;;;10.90;99.90;;;;;;5032330;28;20166;-78
2023/05/15 01:44:07;;;;;;;1.30;1.30;;;10.80;99.90;;;;;;5032461;28;20624;-78
2023/05/15 01:46:37;;;;;;;1.70;1.40;;;10.80;99.90;;;;;;5031658;28;20547;-78
2023/05/15 01:49:03;;;;;;;1.60;1.50;;;10.80;99.90;;;;;;5030929;28;20197;-79
2023/05/15 01:51:30;;;;;;;1.70;1.70;;;10.70;99.90;;;;;;5032303;28;20183;-78
2023/05/15 01:53:58;;;;;;;1.50;1.40;;;10.80;99.90;;;;;;5032472;28;20172;-79
2023/05/15 01:56:26;;;;;;;1.27;1.27;;;10.80;99.90;;;;;;5035006;28;20171;-81
2023/05/15 01:58:55;;;;;;;1.40;1.40;;;10.80;99.90;;;;;;5033473;28;20279;-79
2023/05/15 02:01:22;;;;;;;1.50;1.50;;;10.90;99.90;;;;;;5032729;28;20175;-78
2023/05/15 02:03:49;;;;;;;1.40;1.40;;;10.90;99.90;;;;;;5032137;28;20182;-78
2023/05/15 02:06:18;;;;;;;1.50;1.50;;;10.90;99.90;;;;;;5031535;28;20178;-80
2023/05/15 02:08:45;;;;;;;1.47;1.37;;;10.90;99.90;;;;;;5032231;28;20226;-80
2023/05/15 02:11:12;;;;;;;1.30;1.30;;;10.90;99.90;;;;;;5032958;28;20243;-78
2023/05/15 02:13:39;;;;;;;1.33;1.33;;;10.80;99.90;;;;;;5031581;28;20223;-79
2023/05/15 02:16:05;;;;;;;1.37;1.37;;;10.80;99.90;;;;;;5032336;28;20615;-78
2023/05/15 02:18:31;;;;;;;1.60;1.60;;;10.70;99.90;;;;;;5032234;28;20276;-79
2023/05/15 02:20:59;;;;;;;2.00;1.90;;;10.60;99.90;;;;;;5032524;28;20639;-78
2023/05/15 02:23:25;;;;;;;1.60;1.60;;;10.60;99.90;;;;;;5032079;28;20694;-78
2023/05/15 02:26:00;;;;;;;2.47;2.37;;;10.50;99.90;;;;;;5030571;28;20258;-79
2023/05/15 02:28:47;;;;;;;2.60;2.50;;;10.50;99.90;;;;;;5032369;28;20180;-79
2023/05/15 02:31:54;;;;;;;2.90;2.80;;;10.40;99.90;;;;;;5032442;28;20172;-78
2023/05/15 02:34:56;;;;;;;2.80;2.60;;;10.40;99.90;;;;;;4974231;28;20184;-78
2023/05/15 02:37:29;;;;;;;3.00;2.80;;;10.30;99.90;;;;;;4990348;28;20763;-79
2023/05/15 02:39:58;;;;;;;3.00;2.90;;;10.20;99.90;;;;;;4990216;28;20644;-80
2023/05/15 02:42:27;;;;;;;3.00;2.90;;;10.20;99.90;;;;;;4990325;28;20188;-79
2023/05/15 02:44:53;;;;;;;3.57;3.37;;;10.20;99.90;;;;;;4990587;28;20674;-78
2023/05/15 02:47:21;;;;;;;5.67;3.90;;;10.20;99.90;;;;;;4989899;28;20185;-78
2023/05/15 02:49:48;;;;;;;7.53;3.80;;;10.20;99.90;;;;;;4990382;28;20297;-79
2023/05/15 02:52:14;;;;;;;4.93;3.83;;;10.10;99.90;;;;;;4992364;28;20851;-79
2023/05/15 02:54:40;;;;;;;4.10;3.80;;;10.20;99.90;;;;;;4993942;28;20230;-78
2023/05/15 02:57:09;;;;;;;4.53;4.23;;;10.20;99.90;;;;;;4993739;28;20213;-78
2023/05/15 02:59:35;;;;;;;4.90;4.50;;;10.20;99.90;;;;;;4993521;28;20692;-80
2023/05/15 03:02:02;;;;;;;5.37;4.87;;;10.30;99.90;;;;;;4993532;28;20174;-80
2023/05/15 03:04:28;;;;;;;5.83;4.97;;;10.30;99.90;;;;;;4993397;28;20179;-80
2023/05/15 03:06:54;;;;;;;5.87;5.20;;;10.40;99.90;;;;;;4992556;28;20642;-79
2023/05/15 03:09:20;;;;;;;6.53;5.20;;;10.40;99.90;;;;;;5000314;28;20250;-80
2023/05/15 03:11:47;;;;;;;6.57;5.43;;;10.40;99.90;;;;;;5014397;28;20260;-79
2023/05/15 03:14:13;;;;;;;5.70;5.20;;;10.40;99.90;;;;;;5015261;28;20186;-79
2023/05/15 03:16:40;;;;;;;6.10;5.60;;;10.40;99.90;;;;;;5014814;28;20545;-78
2023/05/15 03:19:05;;;;;;;5.80;5.30;;;10.50;99.90;;;;;;5015958;28;20189;-77
2023/05/15 03:21:31;;;;;;;6.03;5.43;;;10.50;99.90;;;;;;5015294;28;20209;-80
2023/05/15 03:23:57;;;;;;;6.57;5.93;;;10.50;99.90;;;;;;5014791;28;20261;-79
2023/05/15 03:26:23;;;;;;;6.33;5.73;;;10.50;99.90;;;;;;5014450;28;20177;-79
2023/05/15 03:28:48;;;;;;;5.83;5.27;;;10.50;99.90;;;;;;5014743;28;20174;-79
2023/05/15 03:31:14;;;;;;;6.93;5.47;;;10.50;99.90;;;;;;5015034;28;20202;-77
2023/05/15 03:33:40;;;;;;;6.47;5.87;;;10.50;99.90;;;;;;5014936;28;20185;-78
2023/05/15 03:36:06;;;;;;;7.83;5.47;;;10.50;99.90;;;;;;5018311;28;20504;-79
2023/05/15 03:38:32;;;;;;;6.60;5.77;;;10.50;99.90;;;;;;5020595;28;20248;-79
2023/05/15 03:40:58;;;;;;;6.40;5.80;;;10.50;99.90;;;;;;5017127;28;20219;-78
2023/05/15 03:43:23;;;;;;;8.50;6.03;;;10.50;99.90;;;;;;5015082;28;20195;-78
2023/05/15 03:45:49;;;;;;;6.13;5.53;;;10.50;99.90;;;;;;5012627;28;20540;-81
2023/05/15 03:48:15;;;;;;;6.37;5.67;;;10.50;99.90;;;;;;5014378;28;20636;-78
2023/05/15 03:50:41;;;;;;;6.30;5.70;;;10.50;99.90;;;;;;5014225;28;20183;-78
2023/05/15 03:53:07;;;;;;;5.90;5.40;;;10.50;99.90;;;;;;5014698;28;20231;-77
2023/05/15 03:55:33;;;;;;;6.13;5.53;;;10.50;99.90;;;;;;5014188;28;20188;-79
2023/05/15 03:57:58;;;;;;;5.97;5.37;;;10.50;99.90;;;;;;5014647;28;20248;-78
2023/05/15 04:00:24;;;;;;;6.27;5.50;;;10.50;99.90;;;;;;5012777;28;20580;-80
2023/05/15 04:02:50;;;;;;;6.30;5.70;;;10.50;99.90;;;;;;5013281;28;20200;-79
2023/05/15 04:05:18;;;;;;;8.17;5.73;;;10.50;99.90;;;;;;5013829;28;20190;-79
2023/05/15 04:07:44;;;;;;;6.50;5.73;;;10.50;99.90;;;;;;5021666;28;20695;-78
2023/05/15 04:10:10;;;;;;;5.87;5.33;;;10.50;99.90;;;;;;5033812;28;20232;-79
2023/05/15 04:12:35;;;;;;;5.97;5.37;;;10.50;99.90;;;;;;5033714;28;20174;-78
2023/05/15 04:15:21;;;;;;;5.53;5.03;;;10.50;99.90;;;;;;5034074;28;20175;-79
2023/05/15 04:17:48;;;;;;;6.13;5.37;;;10.50;99.90;;;;;;5034011;28;20657;-80
2023/05/15 04:20:16;;;;;;;6.60;5.30;;;10.50;99.90;;;;;;5033725;28;20173;-80
2023/05/15 04:22:43;;;;;;;5.87;5.27;;;10.50;99.90;;;;;;5033869;28;20261;-80
2023/05/15 04:25:13;;;;;;;5.50;5.00;;;10.50;99.90;;;;;;5033599;28;20172;-79
2023/05/15 04:27:40;;;;;;;4.67;4.27;;;10.50;99.90;;;;;;5033993;28;20189;-79
2023/05/15 04:30:07;;;;;;;5.67;4.10;;;10.50;99.90;;;;;;5033247;28;20170;-80
2023/05/15 04:32:33;;;;;;;4.00;3.70;;;10.60;99.90;;;;;;5033533;28;20178;-79
2023/05/15 04:35:00;;;;;;;3.90;3.60;;;10.50;99.90;;;;;;5033549;28;20661;-78
2023/05/15 04:37:26;;;;;;;4.10;3.80;;;10.50;99.90;;;;;;5032917;28;20202;-78
2023/05/15 04:39:52;;;;;;;4.83;3.70;;;10.50;99.90;;;;;;5034762;28;20176;-80
2023/05/15 04:42:18;;;;;;;3.93;3.50;;;10.50;99.90;;;;;;5033218;28;20227;-78
2023/05/15 04:44:43;;;;;;;3.30;3.10;;;10.40;99.90;;;;;;5033607;28;20266;-79
2023/05/15 04:47:10;;;;;;;4.17;3.87;;;10.40;99.90;;;;;;5034362;28;20199;-78
2023/05/15 04:49:36;;;;;;;3.23;3.03;;;10.40;99.90;;;;;;5034476;28;20173;-79
2023/05/15 04:52:02;;;;;;;3.30;3.10;;;10.40;99.90;;;;;;5033435;28;20201;-79
2023/05/15 04:54:28;;;;;;;3.60;3.33;;;10.50;99.90;;;;;;5035723;28;20172;-79
2023/05/15 04:56:54;;;;;;;3.77;3.57;;;10.50;99.90;;;;;;5034149;28;20170;-79
2023/05/15 04:59:20;;;;;;;3.33;3.10;;;10.70;99.90;;;;;;5033281;28;20269;-78
2023/05/15 05:01:45;;;;;;;4.10;3.80;;;10.80;99.90;;;;;;5033049;28;20211;-79
2023/05/15 05:04:11;;;;;;;3.73;3.50;;;10.90;99.90;;;;;;5033145;28;20172;-80
2023/05/15 05:06:37;;;;;;;3.30;3.10;;;11.00;99.90;;;;;;5033080;28;20186;-78
2023/05/15 05:09:03;;;;;;;3.40;3.20;;;11.00;99.90;;;;;;5032944;28;20660;-80
2023/05/15 05:11:29;;;;;;;3.47;3.27;;;10.90;99.90;;;;;;5032831;28;20181;-79
2023/05/15 05:13:55;;;;;;;3.50;3.30;;;10.90;99.90;;;;;;5031336;28;20239;-79
2023/05/15 05:16:20;;;;;;;2.77;2.67;;;10.70;99.90;;;;;;5032440;28;20183;-82
2023/05/15 05:18:46;;;;;;;3.67;3.47;;;10.70;99.90;;;;;;5033872;28;20665;-78
2023/05/15 05:21:12;;;;;;;3.50;3.20;;;10.80;99.90;;;;;;5032524;28;20167;-80
2023/05/15 05:23:38;;;;;;;3.10;2.90;;;10.90;99.90;;;;;;5032322;28;20176;-79
2023/05/15 05:26:03;;;;;;;3.27;2.97;;;10.90;99.90;;;;;;5034201;28;20168;-80
2023/05/15 05:28:29;;;;;;;2.60;2.50;;;10.90;99.90;;;;;;5032958;28;20177;-79
2023/05/15 05:30:55;;;;;;;2.93;2.80;;;10.80;99.90;;;;;;5031334;28;20655;-79
2023/05/15 05:33:20;;;;;;;2.80;2.70;;;10.60;99.90;;;;;;5032990;28;20574;-79
2023/05/15 05:35:46;;;;;;;3.00;2.90;;;10.70;99.90;;;;;;5030998;28;20206;-79
2023/05/15 05:38:12;;;;;;;2.60;2.50;;;10.70;99.90;;;;;;5032876;28;20201;-77
2023/05/15 05:40:38;;;;;;;2.80;2.60;;;10.70;99.90;;;;;;5032316;28;20173;-79
2023/05/15 05:43:07;;;;;;;2.67;2.57;;;10.70;99.90;;;;;;5032011;28;20181;-79
2023/05/15 05:45:32;;;;;;;2.90;2.80;;;10.80;99.90;;;;;;5031253;28;20216;-79
2023/05/15 05:47:58;;;;;;;4.83;2.60;;;10.80;99.90;;;;;;5032754;28;20172;-79
2023/05/15 05:50:25;;;;;;;3.83;3.53;;;10.90;99.90;;;;;;5032714;28;20179;-80
2023/05/15 05:52:50;;;;;;;3.20;3.00;;;10.90;99.90;;;;;;5032400;28;20178;-79
2023/05/15 05:55:16;;;;;;;3.37;3.07;;;10.80;99.90;;;;;;5032832;28;20662;-78
2023/05/15 05:57:42;;;;;;;3.97;2.93;;;10.80;99.90;;;;;;5032700;28;20214;-80
2023/05/15 06:00:09;;;;;;;3.10;2.80;;;10.80;99.90;;;;;;5036519;28;20529;-79
2023/05/15 06:02:38;;;;;;;3.30;3.10;;;11.00;99.90;;;;;;5032957;28;20172;-79
2023/05/15 06:05:05;;;;;;;2.67;2.57;;;11.10;99.90;;;;;;5032653;28;20980;-79
2023/05/15 06:07:31;;;;;;;2.90;2.80;;;11.30;99.90;;;;;;5031923;28;20706;-78
2023/05/15 06:09:57;;;;;;;3.00;2.87;;;11.50;99.90;;;;;;5032753;28;20174;-80
2023/05/15 06:12:22;;;;;;;3.30;3.10;;;11.60;99.90;;;;;;5032559;28;20181;-80
2023/05/15 06:14:48;;;;;;;5.47;2.60;;;11.70;99.90;;;;;;5032439;28;20176;-78
2023/05/15 06:17:14;;;;;;;3.00;2.70;;;11.80;99.90;;;;;;5031779;28;20285;-77
2023/05/15 06:19:40;;;;;;;8.43;3.03;;;11.80;99.90;;;;;;5032353;28;20185;-79
2023/05/15 06:22:05;;;;;;;2.90;2.80;;;11.80;99.90;;;;;;5032089;28;20253;-78
2023/05/15 06:24:31;;;;;;;3.57;2.60;;;11.80;99.90;;;;;;5032907;28;20194;-78
2023/05/15 06:26:57;;;;;;;3.27;2.97;;;11.70;99.90;;;;;;5034439;28;20193;-78
2023/05/15 06:29:23;;;;;;;3.30;3.10;;;11.80;99.90;;;;;;5037126;28;20241;-77
2023/05/15 06:31:48;;;;;;;3.40;3.20;;;11.80;99.90;;;;;;5036214;28;20206;-78
2023/05/15 06:34:14;;;;;;;3.63;3.43;;;11.90;99.90;;;;;;5034461;28;20656;-80
2023/05/15 06:36:40;;;;;;;4.63;4.23;;;12.20;99.90;;;;;;5034712;28;20211;-78
2023/05/15 06:39:09;;;;;;;5.10;4.43;;;12.30;99.90;;;;;;5035893;28;20220;-80
2023/05/15 06:41:35;;;;;;;5.60;5.10;;;12.40;99.90;;;;;;5034464;28;20204;-79
2023/05/15 06:44:01;;;;;;;8.17;5.13;;;12.50;99.90;;;;;;5032963;28;20187;-79
2023/05/15 06:46:28;;;;;;;7.90;5.90;;;12.60;99.90;;;;;;5033648;28;20718;-80
2023/05/15 06:49:00;;;;;;;4.50;4.20;;;12.70;99.90;;;;;;5034051;28;20664;-78
2023/05/15 06:51:27;;;;;;;5.77;4.30;;;13.00;99.90;;;;;;5035498;28;20192;-78
2023/05/15 06:53:54;;;;;;;4.37;4.07;;;13.00;99.90;;;;;;5018302;28;20235;-78
2023/05/15 06:56:20;;;;;;;4.77;4.30;;;13.10;99.90;;;;;;5025999;28;20184;-79
2023/05/15 06:58:47;;;;;;;5.87;4.40;;;13.20;99.90;;;;;;5026992;28;20216;-80
2023/05/15 07:01:14;;;;;;;4.83;4.33;;;13.20;99.90;;;;;;5018853;28;20308;-78
2023/05/15 07:03:43;;;;;;;5.10;4.60;;;13.50;99.90;;;;;;5034089;28;20168;-79
2023/05/15 07:06:13;;;;;;;5.57;5.07;;;13.60;99.90;;;;;;5035714;28;20269;-78
2023/05/15 07:08:44;;;;;;;4.57;4.17;;;13.50;99.90;;;;;;5034446;28;21048;-81
2023/05/15 07:11:10;;;;;;;5.40;4.57;;;13.70;99.90;;;;;;5017246;28;20193;-80
2023/05/15 07:13:36;;;;;;;3.57;3.37;;;13.60;99.90;;;;;;5033458;28;20537;-79
2023/05/15 07:16:02;;;;;;;3.90;3.60;;;13.70;99.90;;;;;;5035218;28;20187;-78
2023/05/15 07:18:34;;;;;;;4.80;4.40;;;13.70;99.90;;;;;;5017190;28;20230;-79
2023/05/15 07:21:00;;;;;;;6.20;4.17;;;13.80;99.90;;;;;;5037363;28;20172;-78
2023/05/15 07:23:26;;;;;;;4.20;3.90;;;13.70;99.90;;;;;;5033815;28;20187;-78
2023/05/15 07:25:53;;;;;;;2.37;2.27;;;13.80;99.90;;;;;;5017198;28;20534;-78
2023/05/15 07:28:19;;;;;;;2.30;2.20;;;13.80;99.90;;;;;;5033273;28;20190;-80
2023/05/15 07:30:46;;;;;;;1.43;1.40;;;13.80;99.90;;;;;;5032712;28;20191;-80
2023/05/15 07:33:15;;;;;;;1.27;1.00;;;13.80;99.90;;;;;;5016758;28;20200;-79
2023/05/15 07:35:42;;;;;;;1.30;1.20;;;13.80;99.90;;;;;;5033253;28;20196;-79
2023/05/15 07:38:10;;;;;;;1.37;1.37;;;13.70;99.90;;;;;;5016690;28;20287;-79
2023/05/15 07:40:36;;;;;;;2.83;1.17;;;13.80;99.90;;;;;;5033379;28;20179;-81
2023/05/15 07:43:03;;;;;;;1.10;1.10;;;13.70;99.90;;;;;;5016827;28;20182;-79
2023/05/15 07:45:30;;;;;;;1.20;1.20;;;13.90;99.90;;;;;;5033177;28;20284;-78
2023/05/15 07:47:57;;;;;;;0.80;0.80;;;13.90;99.90;;;;;;5033286;28;20187;-78
2023/05/15 07:50:23;;;;;;;0.97;0.97;;;14.10;99.90;;;;;;5034594;28;20176;-77
2023/05/15 07:52:51;;;;;;;2.30;0.70;;;14.30;99.90;;;;;;5017293;28;20186;-78
2023/05/15 07:55:16;;;;;;;1.23;0.87;;;14.40;99.90;;;;;;5017675;28;20651;-80
2023/05/15 07:57:42;;;;;;;0.93;0.90;;;14.50;99.90;;;;;;5033832;28;20211;-79
2023/05/15 08:00:11;;;;;;;0.90;0.90;;;14.50;99.90;;;;;;5039849;28;20179;-79
2023/05/15 08:02:39;;;;;;;0.83;0.83;;;14.60;99.90;;;;;;5046861;28;20180;-81
2023/05/15 08:05:07;;;;;;;0.80;0.80;;;14.70;99.90;;;;;;5034730;28;20177;-79
2023/05/15 08:07:35;;;;;;;0.87;0.87;;;14.70;99.90;;;;;;5033883;28;20230;-78
2023/05/15 08:10:04;;;;;;;0.80;0.80;;;14.80;99.90;;;;;;4999977;28;20184;-78
2023/05/15 08:12:31;;;;;;;0.60;0.60;;;14.90;99.90;;;;;;5033914;28;20198;-79
2023/05/15 08:14:57;;;;;;;0.50;0.50;;;15.10;99.90;;;;;;5031880;28;20192;-79
2023/05/15 08:17:24;;;;;;;0.63;0.63;;;15.10;99.90;;;;;;5031811;28;20212;-80
2023/05/15 08:19:52;;;;;;;0.60;0.60;;;15.00;99.90;;;;;;5032333;28;20244;-80
2023/05/15 08:22:24;;;;;;;0.80;0.80;;;15.10;99.90;;;;;;5033927;28;20650;-79
2023/05/15 08:24:53;;;;;;;0.63;0.63;;;15.10;99.90;;;;;;5032329;28;20535;-80
2023/05/15 08:27:21;;;;;;;0.50;0.50;;;15.30;99.90;;;;;;5032317;28;20745;-80
2023/05/15 08:29:48;;;;;;;1.00;0.90;;;15.50;99.90;;;;;;5031501;28;20199;-79
2023/05/15 08:32:17;;;;;;;0.90;0.90;;;15.80;99.90;;;;;;5015369;28;20604;-80
2023/05/15 08:34:42;;;;;;;1.10;1.10;;;15.80;99.90;;;;;;5032198;28;20172;-80
2023/05/15 08:37:08;;;;;;;2.40;2.03;;;16.00;99.90;;;;;;5037360;28;20277;-79
2023/05/15 08:39:38;;;;;;;2.30;2.20;;;16.00;99.90;;;;;;5036000;28;20234;-79
2023/05/15 08:42:22;;;;;;;2.47;2.27;;;15.90;99.90;;;;;;5033743;28;20187;-81
2023/05/15 08:44:49;;;;;;;2.23;2.00;;;15.90;99.90;;;;;;5033759;28;20196;-81
2023/05/15 08:47:19;;;;;;;2.10;2.00;;;15.90;99.90;;;;;;5015346;28;20238;-80
2023/05/15 08:50:07;;;;;;;1.73;1.63;;;16.10;99.90;;;;;;5014952;28;20180;-79
2023/05/15 08:52:33;;;;;;;1.70;1.60;;;16.30;99.90;;;;;;5032045;28;20179;-79
2023/05/15 08:55:00;;;;;;;0.63;0.63;;;16.50;99.90;;;;;;5034315;28;20189;-78
2023/05/15 08:57:30;;;;;;;1.20;1.20;;;16.40;99.90;;;;;;5031959;28;20681;-78
2023/05/15 08:59:59;;;;;;;0.30;0.30;;;16.30;99.90;;;;;;5016151;28;20188;-80
2023/05/15 09:02:25;;;;;;;0.20;0.20;;;16.20;99.90;;;;;;5015886;28;20243;-79
2023/05/15 09:04:51;;;;;;;0.10;0.10;;;16.20;99.90;;;;;;5031736;28;20212;-79
2023/05/15 09:07:18;;;;;;;0.30;0.30;;;16.20;99.90;;;;;;5031360;28;20246;-79
2023/05/15 09:09:46;;;;;;;0.30;0.30;;;16.30;99.90;;;;;;5031752;28;20191;-79
2023/05/15 09:12:17;;;;;;;0.20;0.20;;;16.10;99.90;;;;;;5031407;28;20184;-79
2023/05/15 09:14:48;;;;;;;0.30;0.30;;;16.00;99.90;;;;;;5032876;28;20594;-78
2023/05/15 09:17:13;;;;;;;0.33;0.33;;;15.80;99.90;;;;;;5033774;28;20671;-79
2023/05/15 09:19:43;;;;;;;0.57;0.40;;;15.80;99.90;;;;;;5033074;28;20214;-80
2023/05/15 09:22:25;;;;;;;0.20;0.20;;;15.90;99.90;;;;;;5016076;28;20212;-80
2023/05/15 09:24:52;;;;;;;0.20;0.20;;;15.90;99.90;;;;;;5031762;28;20198;-78
2023/05/15 09:27:23;;;;;;;0.30;0.30;;;16.10;99.90;;;;;;5032799;28;20194;-79
2023/05/15 09:30:06;;;;;;;0.30;0.30;;;16.30;99.90;;;;;;5015175;28;20177;-79
2023/05/15 09:32:32;;;;;;;0.20;0.20;;;16.50;99.90;;;;;;5030966;28;20699;-79
2023/05/15 09:34:58;;;;;;;0.20;0.20;;;16.50;99.70;;;;;;5047247;28;20267;-79
2023/05/15 09:37:34;;;;;;;0.30;0.30;;;16.50;99.20;;;;;;5030863;28;20291;-80
2023/05/15 09:40:10;;;;;;;0.20;0.20;;;16.60;99.20;;;;;;5031150;28;20180;-80
2023/05/15 09:42:39;;;;;;;0.50;0.40;;;16.70;99.80;;;;;;5031296;28;20279;-81
2023/05/15 09:45:16;;;;;;;0.20;0.20;;;16.60;99.90;;;;;;5014877;28;20180;-79
2023/05/15 09:47:44;;;;;;;0.30;0.30;;;16.60;99.20;;;;;;5016009;28;20622;-79
2023/05/15 09:50:19;;;;;;;0.30;0.30;;;16.60;99.30;;;;;;5032159;28;20674;-79
2023/05/15 09:52:46;;;;;;;0.30;0.30;;;16.60;99.40;;;;;;5032518;28;20261;-79
2023/05/15 09:55:16;;;;;;;0.10;0.10;;;16.70;99.30;;;;;;5041685;28;20185;-79
2023/05/15 09:57:42;;;;;;;0.17;0.17;;;16.70;98.50;;;;;;5038023;28;20239;-80
2023/05/15 10:00:11;;;;;;;1.23;0.47;;;16.60;98.80;;;;;;5031563;28;20246;-80
2023/05/15 10:02:40;;;;;;;0.63;0.50;;;16.50;99.90;;;;;;5034581;28;20183;-79
2023/05/15 10:05:11;;;;;;;0.60;0.60;;;16.70;99.90;;;;;;5036480;28;20173;-79
2023/05/15 10:07:40;;;;;;;0.60;0.60;;;16.80;99.90;;;;;;5034684;28;20239;-79
2023/05/15 10:10:09;;;;;;;0.40;0.40;;;17.00;99.90;;;;;;5034551;28;20176;-80
2023/05/15 10:12:35;;;;;;;0.30;0.30;;;17.20;99.90;;;;;;5033720;28;20306;-79
2023/05/15 10:15:03;;;;;;;0.30;0.30;;;17.50;99.90;;;;;;5035225;28;20203;-79
2023/05/15 10:17:35;;;;;;;0.20;0.20;;;17.60;99.30;;;;;;5042196;28;20203;-80
2023/05/15 10:20:05;;;;;;;1.50;0.30;;;17.70;97.90;;;;;;5040405;28;20253;-83
2023/05/15 10:22:43;;;;;;;0.20;0.20;;;17.40;98.50;;;;;;5035754;28;20305;-79
2023/05/15 10:25:25;;;;;;;0.20;0.20;;;17.30;97.70;;;;;;5034883;28;20176;-80
2023/05/15 10:27:52;;;;;;;0.23;0.23;;;17.10;97.30;;;;;;5034888;28;20174;-79
2023/05/15 10:30:22;;;;;;;0.20;0.20;;;17.20;97.10;;;;;;5001609;28;20181;-79
2023/05/15 10:32:49;;;;;;;0.20;0.20;;;17.30;97.60;;;;;;5033655;28;20204;-81
2023/05/15 10:35:16;;;;;;;0.20;0.20;;;17.40;97.20;;;;;;5034103;28;20204;-80
2023/05/15 10:37:45;;;;;;;0.23;0.23;;;17.50;96.80;;;;;;5019602;28;20219;-81
2023/05/15 10:40:14;;;;;;;0.20;0.20;;;17.50;96.80;;;;;;5035062;28;20182;-80
2023/05/15 10:42:48;;;;;;;0.10;0.10;;;17.70;97.20;;;;;;5037892;28;20195;-80
2023/05/15 10:45:15;;;;;;;0.20;0.20;;;17.70;96.80;;;;;;5005429;28;20188;-80
2023/05/15 10:47:45;;;;;;;0.37;0.37;;;17.70;97.10;;;;;;5034600;28;20737;-80
2023/05/15 10:50:13;;;;;;;0.30;0.30;;;17.40;96.70;;;;;;5018429;28;20671;-80
2023/05/15 10:52:42;;;;;;;1.80;0.30;;;17.40;96.90;;;;;;5037898;28;20188;-78
2023/05/15 10:55:15;;;;;;;0.30;0.30;;;17.20;96.00;;;;;;5035728;28;20179;-79
2023/05/15 10:57:42;;;;;;;0.20;0.20;;;17.10;95.60;;;;;;5033821;28;20204;-79
2023/05/15 11:00:27;;;;;;;0.47;0.40;;;17.10;95.90;;;;;;5033842;28;20186;-78
2023/05/15 11:02:55;;;;;;;2.80;2.60;;;17.20;96.30;;;;;;5035653;28;20636;-79
2023/05/15 11:05:23;;;;;;;1.20;1.10;;;17.30;95.40;;;;;;5019450;28;20199;-79
2023/05/15 11:08:14;;;;;;;15.40;7.87;;;17.30;94.80;;;;;;5033537;28;20254;-81
2023/05/15 11:10:40;;;;;;;20.27;11.07;;;17.50;94.80;;;;;;5035221;28;20181;-78
2023/05/15 11:13:06;;;;;;;1.17;1.07;;;17.70;95.00;;;;;;5034139;28;20253;-78
2023/05/15 11:15:46;;;;;;;0.30;0.30;;;17.80;94.60;;;;;;5034991;28;20185;-79
2023/05/15 11:18:12;;;;;;;0.30;0.30;;;18.00;94.20;;;;;;5033840;28;20207;-80
2023/05/15 11:20:40;;;;;;;0.37;0.37;;;18.20;94.10;;;;;;5035491;28;20223;-79
2023/05/15 11:23:06;;;;;;;0.50;0.27;;;18.20;94.00;;;;;;5036550;28;20180;-80
2023/05/15 11:25:34;;;;;;;0.20;0.20;;;18.20;93.80;;;;;;5035479;28;20176;-79
2023/05/15 11:28:02;;;;;;;0.20;0.20;;;18.30;94.40;;;;;;5034209;28;20279;-80
2023/05/15 11:30:51;;;;;;;0.40;0.40;;;18.30;93.80;;;;;;5035053;28;20179;-79
2023/05/15 11:33:19;;;;;;;0.30;0.30;;;18.30;94.00;;;;;;5028550;28;20193;-81
2023/05/15 11:35:56;;;;;;;0.20;0.20;;;18.10;94.20;;;;;;5033908;28;20246;-79
2023/05/15 11:38:27;;;;;;;0.10;0.10;;;18.00;94.10;;;;;;5034791;28;20200;-79
2023/05/15 11:40:59;;;;;;;0.63;0.10;;;18.10;94.30;;;;;;5035144;28;20160;-80
2023/05/15 11:43:33;;;;;;;0.10;0.10;;;18.20;94.00;;;;;;5033884;28;20543;-80
2023/05/15 11:46:02;;;;;;;0.20;0.20;;;18.30;93.40;;;;;;5036244;28;20255;-80
2023/05/15 11:48:38;;;;;;;0.13;0.13;;;18.30;92.80;;;;;;5035574;28;20203;-79
2023/05/15 11:51:05;;;;;;;0.20;0.20;;;18.40;92.90;;;;;;5046957;28;20640;-80
2023/05/15 11:53:32;;;;;;;0.20;0.20;;;18.40;92.40;;;;;;5036502;28;20540;-79
2023/05/15 11:55:58;;;;;;;0.30;0.30;;;18.50;92.10;;;;;;5035664;28;20175;-80
2023/05/15 11:58:24;;;;;;;1.90;0.47;;;18.70;92.20;;;;;;5041832;28;20215;-79
2023/05/15 12:00:53;;;;;;;0.40;0.30;;;18.70;92.30;;;;;;5037161;28;20184;-79
2023/05/15 12:03:34;;;;;;;0.27;0.20;;;18.70;91.40;;;;;;5035322;28;20183;-80
2023/05/15 12:06:01;;;;;;;0.20;0.20;;;18.70;91.70;;;;;;5034066;28;20169;-80
2023/05/15 12:08:35;;;;;;;0.30;0.30;;;18.70;91.10;;;;;;5037664;28;20227;-79
2023/05/15 12:11:02;;;;;;;0.20;0.20;;;18.90;91.60;;;;;;5041298;28;20214;-79
2023/05/15 12:13:29;;;;;;;0.20;0.20;;;18.80;91.30;;;;;;5034690;28;20173;-80
2023/05/15 12:15:55;;;;;;;1.57;0.30;;;18.90;91.80;;;;;;5034065;28;20179;-80
2023/05/15 12:18:22;;;;;;;0.53;0.10;;;19.10;91.90;;;;;;5036941;28;20680;-80
2023/05/15 12:20:50;;;;;;;0.20;0.20;;;19.20;91.50;;;;;;5034070;28;20632;-80
2023/05/15 12:23:19;;;;;;;0.40;0.20;;;19.20;91.30;;;;;;5033969;28;20513;-79
2023/05/15 12:25:46;;;;;;;0.17;0.17;;;19.10;91.10;;;;;;5033160;28;20177;-80
2023/05/15 12:28:13;;;;;;;0.20;0.20;;;19.20;91.10;;;;;;5033693;28;20176;-79
2023/05/15 12:30:42;;;;;;;0.17;0.17;;;19.30;91.10;;;;;;5033454;28;20169;-78
2023/05/15 12:33:15;;;;;;;0.40;0.40;;;19.50;91.30;;;;;;5033606;28;20173;-80
2023/05/15 12:35:44;;;;;;;3.57;0.50;;;19.60;90.90;;;;;;5033951;28;20161;-80
2023/05/15 12:38:17;;;;;;;0.10;0.10;;;19.50;90.80;;;;;;5033858;28;20219;-79
2023/05/15 12:40:46;;;;;;;0.40;0.10;;;19.50;90.70;;;;;;5034508;28;20486;-79
2023/05/15 12:43:12;;;;;;;0.20;0.20;;;19.40;90.20;;;;;;5035109;28;20177;-81
2023/05/15 12:45:39;;;;;;;0.20;0.20;;;19.20;90.30;;;;;;5033970;28;20296;-80
2023/05/15 12:48:06;;;;;;;0.20;0.20;;;19.00;90.70;;;;;;5034176;28;20176;-80
2023/05/15 12:50:34;;;;;;;0.10;0.10;;;18.90;90.70;;;;;;5033110;28;20168;-81
2023/05/15 12:53:02;;;;;;;0.20;0.20;;;18.80;91.00;;;;;;5033594;28;20180;-79